createdAt,value
2017-05-31T00:01:22.771Z,20.58
2017-05-31T00:03:51.853Z,21.16
2017-05-31T00:06:20.959Z,19.78
2017-05-31T00:08:50.270Z,24.06
2017-05-31T00:11:19.508Z,25.40
2017-05-31T00:13:48.602Z,21.28
2017-05-31T00:16:17.699Z,21.72
2017-05-31T00:18:47.198Z,21.62
2017-05-31T00:21:16.306Z,23.28
2017-05-31T00:23:45.400Z,23.58
2017-05-31T00:26:14.624Z,21.08
2017-05-31T00:28:43.826Z,25.26
2017-05-31T00:31:12.911Z,21.42
2017-05-31T00:33:42.027Z,21.32
2017-05-31T00:36:11.152Z,21.66
2017-05-31T00:38:40.708Z,23.04
2017-05-31T00:41:09.780Z,19.12
2017-05-31T00:43:38.850Z,18.76
2017-05-31T00:46:07.950Z,21.28
2017-05-31T00:48:37.034Z,21.66
2017-05-31T00:51:06.379Z,18.52
2017-05-31T00:53:35.462Z,19.72
2017-05-31T00:56:04.577Z,17.90
2017-05-31T00:58:33.971Z,20.74
2017-05-31T01:01:03.047Z,20.16
2017-05-31T01:03:32.131Z,19.06
2017-05-31T01:06:01.254Z,19.76
2017-05-31T01:08:30.339Z,21.24
2017-05-31T01:10:59.551Z,17.26
2017-05-31T01:13:28.626Z,19.86
2017-05-31T01:15:57.732Z,19.68
2017-05-31T01:18:26.828Z,18.22
2017-05-31T01:20:55.913Z,19.16
2017-05-31T01:23:25.184Z,18.84
2017-05-31T01:25:54.207Z,19.10
2017-05-31T01:28:23.281Z,17.58
2017-05-31T01:30:52.392Z,17.74
2017-05-31T01:33:20.723Z,16.74
2017-05-31T01:35:49.839Z,17.28
2017-05-31T01:38:19.008Z,17.12
2017-05-31T01:40:48.092Z,19.16
2017-05-31T01:43:17.205Z,17.90
2017-05-31T01:45:46.295Z,16.50
2017-05-31T01:48:15.568Z,19.36
2017-05-31T01:50:44.644Z,18.72
2017-05-31T01:53:13.752Z,19.50
2017-05-31T01:55:42.857Z,19.72
2017-05-31T01:58:11.946Z,18.44
2017-05-31T02:00:41.178Z,17.66
2017-05-31T02:03:10.267Z,22.16
2017-05-31T02:05:39.790Z,19.04
2017-05-31T02:08:09.045Z,21.04
2017-05-31T02:10:38.310Z,18.96
2017-05-31T02:13:07.445Z,19.68
2017-05-31T02:15:36.534Z,21.16
2017-05-31T02:18:05.680Z,22.04
2017-05-31T02:20:35.909Z,26.34
2017-05-31T02:23:05.046Z,21.70
2017-05-31T02:25:34.123Z,25.68
2017-05-31T02:28:03.256Z,27.20
2017-05-31T02:30:32.424Z,25.16
2017-05-31T02:33:01.661Z,26.28
2017-05-31T02:35:30.783Z,26.18
2017-05-31T02:37:59.894Z,24.94
2017-05-31T02:40:29.011Z,24.48
2017-05-31T02:42:58.157Z,24.58
2017-05-31T02:45:27.253Z,24.94
2017-05-31T02:47:56.371Z,21.96
2017-05-31T02:50:25.454Z,25.82
2017-05-31T02:52:54.591Z,26.26
2017-05-31T02:55:23.683Z,26.26
2017-05-31T02:57:52.814Z,26.04
2017-05-31T03:00:21.896Z,23.44
2017-05-31T03:02:51.019Z,27.70
2017-05-31T03:05:20.136Z,28.16
2017-05-31T03:07:49.495Z,26.16
2017-05-31T03:10:18.610Z,25.64
2017-05-31T03:12:47.720Z,30.04
2017-05-31T03:15:16.854Z,24.74
2017-05-31T03:17:45.995Z,24.76
2017-05-31T03:20:15.159Z,23.16
2017-05-31T03:22:44.256Z,23.44
2017-05-31T03:25:13.589Z,22.72
2017-05-31T03:27:42.709Z,25.60
2017-05-31T03:30:11.847Z,21.10
2017-05-31T03:32:40.930Z,23.96
2017-05-31T03:35:10.084Z,24.10
2017-05-31T03:37:39.192Z,21.88
2017-05-31T03:40:08.322Z,21.40
2017-05-31T03:42:37.427Z,22.08
2017-05-31T03:45:06.550Z,20.14
2017-05-31T03:47:35.686Z,19.74
2017-05-31T03:50:04.775Z,21.70
2017-05-31T03:52:33.912Z,19.36
2017-05-31T03:55:02.996Z,20.72
2017-05-31T03:57:32.119Z,22.32
2017-05-31T04:00:01.228Z,22.02
2017-05-31T04:02:30.975Z,17.40
2017-05-31T04:05:00.071Z,21.12
2017-05-31T04:07:29.199Z,19.42
2017-05-31T04:09:58.274Z,19.10
2017-05-31T04:12:27.397Z,19.84
2017-05-31T04:14:56.475Z,20.18
2017-05-31T04:17:25.604Z,18.60
2017-05-31T04:19:54.711Z,18.90
2017-05-31T04:22:23.847Z,19.46
2017-05-31T04:24:52.990Z,18.10
2017-05-31T04:27:22.087Z,16.90
2017-05-31T04:29:51.259Z,19.12
2017-05-31T04:32:20.383Z,19.60
2017-05-31T04:34:49.539Z,20.42
2017-05-31T04:37:18.616Z,18.36
2017-05-31T04:39:47.750Z,18.98
2017-05-31T04:42:16.899Z,19.68
2017-05-31T04:44:46.010Z,18.76
2017-05-31T04:47:15.142Z,18.86
2017-05-31T04:49:44.239Z,19.22
2017-05-31T04:52:13.375Z,16.84
2017-05-31T04:54:42.492Z,18.32
2017-05-31T04:57:11.581Z,20.70
2017-05-31T04:59:40.735Z,19.40
2017-05-31T05:02:09.836Z,19.84
2017-05-31T05:04:38.956Z,20.02
2017-05-31T05:07:08.068Z,17.88
2017-05-31T05:09:37.164Z,19.80
2017-05-31T05:12:06.330Z,22.44
2017-05-31T05:14:35.420Z,19.64
2017-05-31T05:17:04.551Z,22.80
2017-05-31T05:19:33.915Z,23.16
2017-05-31T05:22:03.010Z,18.70
2017-05-31T05:24:32.152Z,18.98
2017-05-31T05:27:01.251Z,19.04
2017-05-31T05:29:30.432Z,17.00
2017-05-31T05:31:59.571Z,15.94
2017-05-31T05:34:28.679Z,18.64
2017-05-31T05:36:57.824Z,17.22
2017-05-31T05:39:26.978Z,17.98
2017-05-31T05:41:56.099Z,19.30
2017-05-31T05:44:25.245Z,17.84
2017-05-31T05:46:54.355Z,18.94
2017-05-31T05:49:23.482Z,17.72
2017-05-31T05:51:52.577Z,19.44
2017-05-31T05:54:21.727Z,19.00
2017-05-31T05:56:50.819Z,17.22
2017-05-31T05:59:19.969Z,16.82
2017-05-31T06:01:49.079Z,16.18
2017-05-31T06:04:18.395Z,17.60
2017-05-31T06:06:47.475Z,15.34
2017-05-31T06:09:16.603Z,18.20
2017-05-31T06:11:45.684Z,15.28
2017-05-31T06:14:14.818Z,16.56
2017-05-31T06:16:43.936Z,17.54
2017-05-31T06:19:13.186Z,22.08
2017-05-31T06:21:42.262Z,20.56
2017-05-31T06:24:11.431Z,18.52
2017-05-31T06:26:40.531Z,18.86
2017-05-31T06:29:09.679Z,21.66
2017-05-31T06:31:38.795Z,21.76
2017-05-31T06:34:07.922Z,22.50
2017-05-31T06:36:37.013Z,20.56
2017-05-31T06:39:06.173Z,22.92
2017-05-31T06:41:36.058Z,21.10
2017-05-31T06:44:05.132Z,22.68
2017-05-31T06:46:34.263Z,21.46
2017-05-31T06:49:03.400Z,20.74
2017-05-31T06:51:32.500Z,17.28
2017-05-31T06:54:01.629Z,19.48
2017-05-31T06:56:30.742Z,21.78
2017-05-31T06:58:59.844Z,20.88
2017-05-31T07:01:28.991Z,17.72
2017-05-31T07:03:58.091Z,16.82
2017-05-31T07:06:27.223Z,18.26
2017-05-31T07:08:56.343Z,22.96
2017-05-31T07:11:25.418Z,19.14
2017-05-31T07:13:54.589Z,18.04
2017-05-31T07:16:23.669Z,18.80
2017-05-31T07:18:52.787Z,18.74
2017-05-31T07:21:21.944Z,26.10
2017-05-31T07:23:51.030Z,20.98
2017-05-31T07:26:20.145Z,21.58
2017-05-31T07:28:49.279Z,25.04
2017-05-31T07:31:18.366Z,22.54
2017-05-31T07:33:47.531Z,24.88
2017-05-31T07:36:16.720Z,25.96
2017-05-31T07:38:45.819Z,22.52
2017-05-31T07:41:15.003Z,21.02
2017-05-31T07:43:44.080Z,20.78
2017-05-31T07:46:13.254Z,24.40
2017-05-31T07:48:42.361Z,22.32
2017-05-31T07:51:11.511Z,21.74
2017-05-31T07:53:40.638Z,21.18
2017-05-31T07:56:08.991Z,22.24
2017-05-31T07:58:38.077Z,24.06
2017-05-31T08:01:07.232Z,22.76
2017-05-31T08:03:36.337Z,25.74
2017-05-31T08:06:05.471Z,26.30
2017-05-31T08:08:34.609Z,22.72
2017-05-31T08:11:03.681Z,23.32
2017-05-31T08:13:32.831Z,22.90
2017-05-31T08:16:01.948Z,27.76
2017-05-31T08:18:31.064Z,26.04
2017-05-31T08:21:00.131Z,27.92
2017-05-31T08:23:29.272Z,24.62
2017-05-31T08:25:58.460Z,22.98
2017-05-31T08:28:27.563Z,27.88
2017-05-31T08:30:56.731Z,26.70
2017-05-31T08:33:25.812Z,34.26
2017-05-31T08:35:54.945Z,22.52
2017-05-31T08:38:24.056Z,21.70
2017-05-31T08:40:53.215Z,22.30
2017-05-31T08:43:22.347Z,21.40
2017-05-31T08:45:51.512Z,19.08
2017-05-31T08:48:20.583Z,21.70
2017-05-31T08:50:49.751Z,26.84
2017-05-31T08:53:18.831Z,29.08
2017-05-31T08:55:47.939Z,19.76
2017-05-31T08:58:17.082Z,20.06
2017-05-31T09:00:46.168Z,19.50
2017-05-31T09:03:15.326Z,17.98
2017-05-31T09:05:44.467Z,20.36
2017-05-31T09:08:13.610Z,21.76
2017-05-31T09:10:42.795Z,18.98
2017-05-31T09:13:11.873Z,20.32
2017-05-31T09:15:41.024Z,17.18
2017-05-31T09:18:10.128Z,18.38
2017-05-31T09:20:39.251Z,16.46
2017-05-31T09:23:08.326Z,19.42
2017-05-31T09:25:37.459Z,21.24
2017-05-31T09:28:06.563Z,19.16
2017-05-31T09:30:35.697Z,19.50
2017-05-31T09:33:04.811Z,25.78
2017-05-31T09:35:33.949Z,17.36
2017-05-31T09:38:03.044Z,15.88
2017-05-31T09:40:32.180Z,15.78
2017-05-31T09:43:01.255Z,17.52
2017-05-31T09:45:30.379Z,19.48
2017-05-31T09:47:59.480Z,18.48
2017-05-31T09:50:28.645Z,15.34
2017-05-31T09:52:57.742Z,20.00
2017-05-31T09:55:26.931Z,18.54
2017-05-31T09:57:56.011Z,16.18
2017-05-31T10:00:25.118Z,16.08
2017-05-31T10:02:54.259Z,18.24
2017-05-31T10:05:23.346Z,16.32
2017-05-31T10:07:52.471Z,16.34
2017-05-31T10:10:21.611Z,19.56
2017-05-31T10:12:50.743Z,16.06
2017-05-31T10:15:19.884Z,18.72
2017-05-31T10:17:48.957Z,16.04
2017-05-31T10:20:18.109Z,15.42
2017-05-31T10:22:47.211Z,17.42
2017-05-31T10:25:16.345Z,16.28
2017-05-31T10:27:45.431Z,18.28
2017-05-31T10:30:14.555Z,21.08
2017-05-31T10:32:43.644Z,15.32
2017-05-31T10:35:12.780Z,13.52
2017-05-31T10:37:41.897Z,14.80
2017-05-31T10:40:11.902Z,13.76
2017-05-31T10:42:41.019Z,15.76
2017-05-31T10:45:10.097Z,14.74
2017-05-31T10:47:39.241Z,15.56
2017-05-31T10:50:08.306Z,12.72
2017-05-31T10:52:37.424Z,17.24
2017-05-31T10:55:06.504Z,15.32
2017-05-31T10:57:35.683Z,15.02
2017-05-31T11:00:04.799Z,16.80
2017-05-31T11:02:33.971Z,13.92
2017-05-31T11:05:03.048Z,12.72
2017-05-31T11:07:32.199Z,15.04
2017-05-31T11:10:01.319Z,14.52
2017-05-31T11:12:30.455Z,11.92
2017-05-31T11:14:59.557Z,11.96
2017-05-31T11:17:28.799Z,12.48
2017-05-31T11:19:57.883Z,8.18
2017-05-31T11:22:27.014Z,8.80
2017-05-31T11:24:56.424Z,8.66
2017-05-31T11:27:25.534Z,9.38
2017-05-31T11:29:54.603Z,8.12
2017-05-31T11:32:23.710Z,8.38
2017-05-31T11:34:52.816Z,9.00
2017-05-31T11:37:22.017Z,11.52
2017-05-31T11:39:51.136Z,17.62
2017-05-31T11:42:20.228Z,11.06
2017-05-31T11:44:49.332Z,11.34
2017-05-31T11:47:18.456Z,8.18
2017-05-31T11:49:47.523Z,8.78
2017-05-31T11:52:16.639Z,19.26
2017-05-31T11:54:45.815Z,9.46
2017-05-31T11:57:14.907Z,7.64
2017-05-31T11:59:44.035Z,10.84
2017-05-31T12:02:13.107Z,8.98
2017-05-31T12:04:42.207Z,7.66
2017-05-31T12:07:11.299Z,8.10
2017-05-31T12:09:40.423Z,5.98
2017-05-31T12:14:44.937Z,10.74
2017-05-31T12:17:14.015Z,7.42
2017-05-31T12:22:18.640Z,7.12
2017-05-31T12:24:47.743Z,9.50
2017-05-31T12:27:16.876Z,8.36
2017-05-31T12:29:45.928Z,9.24
2017-05-31T12:32:15.064Z,8.94
2017-05-31T12:34:44.171Z,15.66
2017-05-31T12:37:13.264Z,10.08
2017-05-31T12:39:42.570Z,8.30
2017-05-31T12:42:11.648Z,10.54
2017-05-31T12:44:40.780Z,7.20
2017-05-31T12:49:45.392Z,7.90
2017-05-31T12:52:14.459Z,6.72
2017-05-31T12:54:43.603Z,7.58
2017-05-31T12:57:12.762Z,8.06
2017-05-31T12:59:41.820Z,9.16
2017-05-31T13:02:10.965Z,8.82
2017-05-31T13:04:40.043Z,9.18
2017-05-31T13:07:09.153Z,10.02
2017-05-31T13:09:38.263Z,14.74
2017-05-31T13:12:07.380Z,14.02
2017-05-31T13:14:36.527Z,13.94
2017-05-31T13:17:05.596Z,15.54
2017-05-31T13:19:34.707Z,8.50
2017-05-31T13:22:03.828Z,10.46
2017-05-31T13:24:32.943Z,8.58
2017-05-31T13:27:02.020Z,7.90
2017-05-31T13:29:31.167Z,9.24
2017-05-31T13:32:00.272Z,7.98
2017-05-31T13:34:29.390Z,11.78
2017-05-31T13:36:58.501Z,8.08
2017-05-31T13:39:27.629Z,13.28
2017-05-31T13:41:56.847Z,11.42
2017-05-31T13:44:25.959Z,12.76
2017-05-31T13:46:55.137Z,11.42
2017-05-31T13:49:24.259Z,8.60
2017-05-31T13:51:54.257Z,11.60
2017-05-31T13:54:23.408Z,9.98
2017-05-31T13:56:52.479Z,12.84
2017-05-31T13:59:21.596Z,8.36
2017-05-31T14:01:50.725Z,7.00
2017-05-31T14:04:19.823Z,8.58
2017-05-31T14:06:48.981Z,11.84
2017-05-31T14:09:18.087Z,6.30
2017-05-31T14:11:47.216Z,6.56
2017-05-31T14:14:16.303Z,8.50
2017-05-31T14:16:45.397Z,8.08
2017-05-31T14:19:14.531Z,12.02
2017-05-31T14:21:43.624Z,7.74
2017-05-31T14:24:12.768Z,8.00
2017-05-31T14:26:41.849Z,6.58
2017-05-31T14:29:10.943Z,5.82
2017-05-31T14:31:40.043Z,7.10
2017-05-31T14:34:09.154Z,5.96
2017-05-31T14:36:38.295Z,7.82
2017-05-31T14:39:07.364Z,6.68
2017-05-31T14:41:36.508Z,7.08
2017-05-31T14:44:05.591Z,10.40
2017-05-31T14:46:34.711Z,10.70
2017-05-31T14:49:03.808Z,12.06
2017-05-31T14:51:32.947Z,14.32
2017-05-31T14:54:01.255Z,10.86
2017-05-31T14:56:30.359Z,14.28
2017-05-31T14:58:59.483Z,14.32
2017-05-31T15:01:28.553Z,8.92
2017-05-31T15:03:57.671Z,13.64
2017-05-31T15:06:26.751Z,10.16
2017-05-31T15:08:55.879Z,16.50
2017-05-31T15:11:25.035Z,11.80
2017-05-31T15:13:54.119Z,13.12
2017-05-31T15:16:23.268Z,10.46
2017-05-31T15:18:52.723Z,12.42
2017-05-31T15:21:21.874Z,11.12
2017-05-31T15:23:51.120Z,11.64
2017-05-31T15:26:20.215Z,12.58
2017-05-31T15:28:49.364Z,10.46
2017-05-31T15:31:18.474Z,12.70
2017-05-31T15:33:47.575Z,13.56
2017-05-31T15:36:16.738Z,14.36
2017-05-31T15:38:45.839Z,10.56
2017-05-31T15:41:15.059Z,12.86
2017-05-31T15:43:44.180Z,10.00
2017-05-31T15:46:12.515Z,13.90
2017-05-31T15:48:41.802Z,14.96
2017-05-31T15:51:10.875Z,9.28
2017-05-31T15:53:39.999Z,11.66
2017-05-31T15:56:09.065Z,9.16
2017-05-31T15:58:38.538Z,10.88
2017-05-31T16:01:07.623Z,13.94
2017-05-31T16:03:36.735Z,12.70
2017-05-31T16:06:05.843Z,17.26
2017-05-31T16:08:34.928Z,17.10
2017-05-31T16:11:04.127Z,14.32
2017-05-31T16:13:33.272Z,16.74
2017-05-31T16:16:02.363Z,15.84
2017-05-31T16:18:31.713Z,14.88
2017-05-31T16:21:00.797Z,11.88
2017-05-31T16:23:29.925Z,15.12
2017-05-31T16:25:59.052Z,19.60
2017-05-31T16:28:28.311Z,17.98
2017-05-31T16:30:57.417Z,13.94
2017-05-31T16:33:26.631Z,13.30
2017-05-31T16:35:55.863Z,22.94
2017-05-31T16:38:24.991Z,13.52
2017-05-31T16:40:54.116Z,12.34
2017-05-31T16:43:23.484Z,14.92
2017-05-31T16:45:52.573Z,13.04
2017-05-31T16:48:21.669Z,9.06
2017-05-31T16:50:51.168Z,10.10
2017-05-31T16:53:20.459Z,9.08
2017-05-31T16:55:49.547Z,10.72
2017-05-31T16:58:18.968Z,9.76
2017-05-31T17:00:48.055Z,6.16
2017-05-31T17:03:17.276Z,7.76
2017-05-31T17:05:46.397Z,9.40
2017-05-31T17:08:15.585Z,7.50
2017-05-31T17:10:44.829Z,11.44
2017-05-31T17:13:14.211Z,7.76
2017-05-31T17:15:43.325Z,10.00
2017-05-31T17:18:12.461Z,14.04
2017-05-31T17:20:41.584Z,14.12
2017-05-31T17:23:10.711Z,16.72
2017-05-31T17:25:39.815Z,9.70
2017-05-31T17:28:09.042Z,12.28
2017-05-31T17:30:38.141Z,10.34
2017-05-31T17:33:07.235Z,10.50
2017-05-31T17:35:36.617Z,15.36
2017-05-31T17:38:05.698Z,12.62
2017-05-31T17:40:34.779Z,11.50
2017-05-31T17:43:03.934Z,8.68
2017-05-31T17:45:33.058Z,11.26
2017-05-31T17:48:02.173Z,9.28
2017-05-31T17:50:31.276Z,7.10
2017-05-31T17:53:00.689Z,9.30
2017-05-31T17:55:29.761Z,6.10
2017-05-31T17:57:58.867Z,8.76
2017-05-31T18:00:27.958Z,8.46
2017-05-31T18:02:57.095Z,6.12
2017-05-31T18:05:26.377Z,8.70
2017-05-31T18:07:55.480Z,7.72
2017-05-31T18:10:24.918Z,6.28
2017-05-31T18:12:54.051Z,7.58
2017-05-31T18:15:23.144Z,5.84
2017-05-31T18:17:52.581Z,6.20
2017-05-31T18:20:22.591Z,7.08
2017-05-31T18:22:51.704Z,7.94
2017-05-31T18:25:21.075Z,13.72
2017-05-31T18:27:50.317Z,6.88
2017-05-31T18:30:19.388Z,7.62
2017-05-31T18:32:48.461Z,8.12
2017-05-31T18:35:17.543Z,7.56
2017-05-31T18:37:46.803Z,6.30
2017-05-31T18:40:15.893Z,6.94
2017-05-31T18:42:44.970Z,6.88
2017-05-31T18:45:14.081Z,8.92
2017-05-31T18:47:43.179Z,11.96
2017-05-31T18:50:12.387Z,9.38
2017-05-31T18:52:41.467Z,9.78
2017-05-31T18:55:10.563Z,11.22
2017-05-31T18:57:39.659Z,12.16
2017-05-31T19:00:08.735Z,13.36
2017-05-31T19:02:37.856Z,9.04
2017-05-31T19:05:06.957Z,9.50
2017-05-31T19:07:36.294Z,8.48
2017-05-31T19:10:05.369Z,8.22
2017-05-31T19:12:34.475Z,9.54
2017-05-31T19:15:03.585Z,9.88
2017-05-31T19:17:32.662Z,8.72
2017-05-31T19:20:01.879Z,8.56
2017-05-31T19:22:30.959Z,8.84
2017-05-31T19:25:00.066Z,7.34
2017-05-31T19:27:29.370Z,10.30
2017-05-31T19:29:58.439Z,10.40
2017-05-31T19:32:27.578Z,9.50
2017-05-31T19:34:57.247Z,7.46
2017-05-31T19:37:26.326Z,6.98
2017-05-31T19:39:55.399Z,7.38
2017-05-31T19:42:24.659Z,7.50
2017-05-31T19:44:53.735Z,9.02
2017-05-31T19:47:22.829Z,11.14
2017-05-31T19:49:51.933Z,7.92
2017-05-31T19:52:21.007Z,7.62
2017-05-31T19:54:50.143Z,8.24
2017-05-31T19:57:19.199Z,6.90
2017-05-31T19:59:48.431Z,7.14
2017-05-31T20:02:17.519Z,6.64
2017-05-31T20:04:46.608Z,7.62
2017-05-31T20:07:15.708Z,6.70
2017-05-31T20:09:44.783Z,6.40
2017-05-31T20:12:13.872Z,8.20
2017-05-31T20:14:43.018Z,8.22
2017-05-31T20:17:12.286Z,10.26
2017-05-31T20:19:41.354Z,11.14
2017-05-31T20:22:10.460Z,11.80
2017-05-31T20:24:39.599Z,9.96
2017-05-31T20:27:08.675Z,10.00
2017-05-31T20:29:38.125Z,11.74
2017-05-31T20:32:07.208Z,12.22
2017-05-31T20:34:36.320Z,13.26
2017-05-31T20:37:05.712Z,12.24
2017-05-31T20:39:34.790Z,10.68
2017-05-31T20:42:03.911Z,10.08
2017-05-31T20:44:33.031Z,11.02
2017-05-31T20:47:02.555Z,10.78
2017-05-31T20:49:31.639Z,9.26
2017-05-31T20:52:00.718Z,10.56
2017-05-31T20:54:29.853Z,11.22
2017-05-31T20:56:58.963Z,7.64
2017-05-31T20:59:28.216Z,6.80
2017-05-31T21:01:57.291Z,8.54
2017-05-31T21:04:26.407Z,8.16
2017-05-31T21:06:55.520Z,7.26
2017-05-31T21:09:24.631Z,6.98
2017-05-31T21:11:53.851Z,7.30
2017-05-31T21:14:22.983Z,8.40
2017-05-31T21:16:52.046Z,7.16
2017-05-31T21:19:21.393Z,7.06
2017-05-31T21:21:50.515Z,6.44
2017-05-31T21:24:19.683Z,6.40
2017-05-31T21:26:49.016Z,7.10
2017-05-31T21:29:18.084Z,7.10
2017-05-31T21:31:47.194Z,6.82
2017-05-31T21:34:16.309Z,9.18
2017-05-31T21:36:45.527Z,6.70
2017-05-31T21:39:14.788Z,6.70
2017-05-31T21:41:43.867Z,7.06
2017-05-31T21:44:12.937Z,6.88
2017-05-31T21:46:42.251Z,6.10
2017-05-31T21:49:11.358Z,6.28
2017-05-31T21:51:40.431Z,7.64
2017-05-31T21:54:09.534Z,7.22
2017-05-31T21:56:38.644Z,7.04
2017-05-31T21:59:07.359Z,10.36
2017-05-31T22:01:36.468Z,9.64
2017-05-31T22:04:05.532Z,7.26
2017-05-31T22:06:34.623Z,11.04
2017-05-31T22:09:03.712Z,10.54
2017-05-31T22:11:32.811Z,7.82
2017-05-31T22:14:01.933Z,9.52
2017-05-31T22:16:31.395Z,11.56
2017-05-31T22:19:00.479Z,10.60
2017-05-31T22:21:29.600Z,10.64
2017-05-31T22:23:58.871Z,6.68
2017-05-31T22:26:27.986Z,11.54
2017-05-31T22:28:57.058Z,9.84
2017-05-31T22:31:26.267Z,8.16
2017-05-31T22:33:55.332Z,10.14
2017-05-31T22:36:24.440Z,11.22
2017-05-31T22:38:53.572Z,16.02
2017-05-31T22:41:22.661Z,12.34
2017-05-31T22:43:51.970Z,10.96
2017-05-31T22:46:21.279Z,9.84
2017-05-31T22:48:50.355Z,9.40
2017-05-31T22:51:19.599Z,10.22
2017-05-31T22:53:48.692Z,11.84
2017-05-31T22:56:17.923Z,8.82
2017-05-31T22:58:46.993Z,8.38
2017-05-31T23:01:16.083Z,8.60
2017-05-31T23:03:45.168Z,8.10
2017-05-31T23:06:14.281Z,10.82
2017-05-31T23:08:43.499Z,10.38
2017-05-31T23:11:12.582Z,10.66
2017-05-31T23:13:41.670Z,11.82
2017-05-31T23:16:10.999Z,9.52
2017-05-31T23:18:40.067Z,12.04
2017-05-31T23:21:09.139Z,12.82
2017-05-31T23:23:38.255Z,11.86
2017-05-31T23:26:07.375Z,13.10
2017-05-31T23:28:36.506Z,13.50
2017-05-31T23:31:05.587Z,14.74
2017-05-31T23:33:35.039Z,12.74
2017-05-31T23:36:04.216Z,16.30
2017-05-31T23:38:33.323Z,16.16
2017-05-31T23:41:02.422Z,14.02
2017-05-31T23:43:31.519Z,10.80
2017-05-31T23:46:00.767Z,11.12
2017-05-31T23:48:29.859Z,11.70
2017-05-31T23:50:58.951Z,14.52
2017-05-31T23:53:28.139Z,13.10
2017-05-31T23:55:57.195Z,13.52
2017-05-31T23:58:26.400Z,17.04
